EGPO

Stornoway Airport

Airport
ICAO code
EGPO
IATA Code
SYY
Summary
ICAO Region
EUR
ICAO Territory
Location

Stornoway, Outer Hebrides, Scotland

Serving
Stornoway
Elevation
26 ft
Coordinates
58° 12' 50" N , 6° 19' 50" W
KCC
Metar
Observation
EGPO 250220Z AUTO 24008KT 9999 SCT002/// BKN006/// OVC013/// 12/11 Q1018
Station
Stornoway
Date/Time
2022-09-25 02:20:00
Wind direction
240°
Wind speed
08 kts
Lowest cloud amount
scattered clouds
Temperature
12°C
Dew point
11°C
Humidity
93%
QNH
1018 hPa
Weather condition
n/a

Description

Small airport serving the Islands of Harris and Lewis in the Scottish Western Isles.

Climatology

Temperate Marine climate/Oceanic climate (Köppen climate classification Cfb). Moderately cool summer and comparatively warm winter with a temperature range of only 14°C. Prevailing south-westerly winds from the Atlantic Ocean.

Runways

Designator Length Width Surface Rops
7/25 1000 23 ASP No/No
18/36 2200 46 ASP Yes/Yes

SKYbrary Partners:

Safety knowledge contributed by: